createdAt,value
2023-04-25T00:01:52.594Z,99.90
2023-04-25T00:04:20.762Z,99.90
2023-04-25T00:06:48.350Z,99.90
2023-04-25T00:09:16.240Z,99.90
2023-04-25T00:11:43.671Z,99.90
2023-04-25T00:16:38.806Z,99.90
2023-04-25T00:19:06.201Z,99.90
2023-04-25T00:21:33.592Z,99.90
2023-04-25T00:24:01.278Z,99.90
2023-04-25T00:26:28.835Z,99.90
2023-04-25T00:28:56.678Z,99.90
2023-04-25T00:31:25.719Z,99.90
2023-04-25T00:33:54.177Z,99.90
2023-04-25T00:36:22.631Z,99.90
2023-04-25T00:38:49.968Z,99.90
2023-04-25T00:41:17.402Z,99.90
2023-04-25T00:43:46.788Z,99.90
2023-04-25T00:46:14.205Z,99.90
2023-04-25T00:51:14.530Z,99.90
2023-04-25T00:53:41.949Z,99.90
2023-04-25T00:56:09.580Z,99.90
2023-04-25T00:58:38.454Z,99.90
2023-04-25T01:01:07.626Z,99.90
2023-04-25T01:06:11.045Z,99.90
2023-04-25T01:08:40.206Z,99.90
2023-04-25T01:11:07.913Z,99.90
2023-04-25T01:13:35.979Z,99.90
2023-04-25T01:16:04.109Z,99.90
2023-04-25T01:18:31.532Z,99.90
2023-04-25T01:21:09.983Z,99.90
2023-04-25T01:23:39.633Z,99.90
2023-04-25T01:26:09.462Z,99.90
2023-04-25T01:28:37.766Z,99.90
2023-04-25T01:31:06.839Z,99.90
2023-04-25T01:33:34.812Z,99.90
2023-04-25T01:36:02.353Z,99.90
2023-04-25T01:38:29.775Z,99.90
2023-04-25T01:40:57.532Z,99.90
2023-04-25T01:43:24.943Z,99.90
2023-04-25T01:45:52.838Z,99.90
2023-04-25T01:48:20.674Z,99.90
2023-04-25T01:53:17.007Z,99.90
2023-04-25T01:55:46.022Z,99.90
2023-04-25T01:58:16.655Z,99.90
2023-04-25T02:01:22.134Z,99.90
2023-04-25T02:04:05.278Z,99.90
2023-04-25T02:06:36.688Z,99.90
2023-04-25T02:09:04.135Z,99.90
2023-04-25T02:11:31.529Z,99.90
2023-04-25T02:14:17.888Z,99.90
2023-04-25T02:16:52.493Z,99.90
2023-04-25T02:19:20.047Z,99.90
2023-04-25T02:21:48.250Z,99.90
2023-04-25T02:26:43.276Z,99.90
2023-04-25T02:29:11.191Z,99.90
2023-04-25T02:31:38.630Z,99.90
2023-04-25T02:34:06.163Z,99.90
2023-04-25T02:36:36.626Z,99.90
2023-04-25T02:39:04.102Z,99.90
2023-04-25T02:41:31.672Z,99.90
2023-04-25T02:43:58.964Z,99.90
2023-04-25T02:46:38.468Z,99.90
2023-04-25T02:49:07.717Z,99.90
2023-04-25T02:51:36.987Z,99.90
2023-04-25T02:54:06.005Z,99.90
2023-04-25T02:56:37.302Z,99.90
2023-04-25T02:59:08.656Z,99.90
2023-04-25T03:01:36.476Z,99.90
2023-04-25T03:04:04.126Z,99.90
2023-04-25T03:06:31.815Z,99.90
2023-04-25T03:11:27.268Z,99.90
2023-04-25T03:13:55.088Z,99.90
2023-04-25T03:16:23.677Z,99.90
2023-04-25T03:18:51.805Z,99.90
2023-04-25T03:21:19.209Z,99.90
2023-04-25T03:23:46.657Z,99.90
2023-04-25T03:26:14.011Z,99.90
2023-04-25T03:28:41.420Z,99.90
2023-04-25T03:31:08.902Z,99.90
2023-04-25T03:33:36.313Z,99.90
2023-04-25T03:36:04.352Z,99.90
2023-04-25T03:38:31.962Z,99.90
2023-04-25T03:40:59.834Z,99.90
2023-04-25T03:43:39.419Z,99.90
2023-04-25T03:48:40.585Z,99.90
2023-04-25T03:51:10.090Z,99.90
2023-04-25T03:53:40.602Z,99.90
2023-04-25T03:56:20.060Z,99.90
2023-04-25T03:58:49.681Z,99.90
2023-04-25T04:01:19.514Z,99.90
2023-04-25T04:03:46.909Z,99.90
2023-04-25T04:06:14.702Z,99.90
2023-04-25T04:11:13.009Z,99.90
2023-04-25T04:13:40.338Z,99.90
2023-04-25T04:16:09.006Z,99.90
2023-04-25T04:18:37.118Z,99.90
2023-04-25T04:21:04.451Z,99.90
2023-04-25T04:23:38.894Z,99.90
2023-04-25T04:26:08.210Z,99.90
2023-04-25T04:28:41.751Z,99.90
2023-04-25T04:31:35.496Z,99.90
2023-04-25T04:34:04.447Z,99.90
2023-04-25T04:36:31.928Z,99.90
2023-04-25T04:38:59.538Z,99.90
2023-04-25T04:41:36.108Z,99.90
2023-04-25T04:46:54.402Z,99.90
2023-04-25T04:49:47.997Z,99.90
2023-04-25T04:52:39.903Z,99.90
2023-04-25T04:55:32.984Z,99.90
2023-04-25T04:58:08.855Z,99.90
2023-04-25T05:00:52.722Z,99.90
2023-04-25T05:03:34.231Z,99.90
2023-04-25T05:06:22.143Z,99.90
2023-04-25T05:09:12.192Z,99.90
2023-04-25T05:12:03.641Z,99.90
2023-04-25T05:14:50.905Z,99.90
2023-04-25T05:17:50.488Z,99.90
2023-04-25T05:20:20.422Z,99.90
2023-04-25T05:23:02.662Z,99.90
2023-04-25T05:25:55.848Z,99.90
2023-04-25T05:31:21.459Z,99.90
2023-04-25T05:33:57.461Z,99.90
2023-04-25T05:36:29.825Z,99.90
2023-04-25T05:38:57.173Z,99.90
2023-04-25T05:41:50.601Z,99.90
2023-04-25T05:44:44.336Z,99.90
2023-04-25T05:47:30.511Z,99.90
2023-04-25T05:50:09.593Z,99.90
2023-04-25T05:52:55.803Z,99.90
2023-04-25T05:55:36.075Z,99.90
2023-04-25T05:58:17.580Z,99.90
2023-04-25T06:03:17.792Z,99.90
2023-04-25T06:05:47.274Z,99.90
2023-04-25T06:08:14.700Z,99.90
2023-04-25T06:10:44.100Z,99.90
2023-04-25T06:13:11.511Z,99.90
2023-04-25T06:15:39.200Z,99.90
2023-04-25T06:18:06.639Z,99.90
2023-04-25T06:20:35.256Z,99.90
2023-04-25T06:23:02.717Z,99.90
2023-04-25T06:25:42.286Z,99.90
2023-04-25T06:28:09.656Z,99.90
2023-04-25T06:30:37.766Z,99.90
2023-04-25T06:33:09.750Z,99.90
2023-04-25T06:35:37.741Z,99.90
2023-04-25T06:38:07.846Z,99.90
2023-04-25T06:40:37.118Z,99.90
2023-04-25T06:43:04.799Z,99.90
2023-04-25T06:45:57.989Z,99.90
2023-04-25T06:48:28.880Z,99.90
2023-04-25T06:50:57.491Z,99.90
2023-04-25T06:53:25.376Z,99.90
2023-04-25T06:55:59.036Z,99.90
2023-04-25T06:58:31.492Z,99.90
2023-04-25T07:03:39.912Z,99.90
2023-04-25T07:06:14.703Z,99.90
2023-04-25T07:08:42.665Z,99.90
2023-04-25T07:11:10.188Z,99.90
2023-04-25T07:16:06.605Z,99.90
2023-04-25T07:18:36.320Z,99.90
2023-04-25T07:21:04.442Z,99.90
2023-04-25T07:23:33.793Z,99.90
2023-04-25T07:26:04.926Z,99.90
2023-04-25T07:28:32.490Z,99.90
2023-04-25T07:30:59.855Z,99.90
2023-04-25T07:33:28.343Z,99.90
2023-04-25T07:35:56.611Z,99.90
2023-04-25T07:38:24.180Z,99.90
2023-04-25T07:40:52.005Z,99.90
2023-04-25T07:43:19.359Z,99.90
2023-04-25T07:45:57.606Z,99.90
2023-04-25T07:50:55.661Z,99.90
2023-04-25T07:53:23.087Z,99.90
2023-04-25T07:55:55.663Z,99.90
2023-04-25T07:58:23.338Z,99.90
2023-04-25T08:00:55.904Z,99.90
2023-04-25T08:03:43.432Z,99.90
2023-04-25T08:06:23.727Z,99.90
2023-04-25T08:09:09.657Z,99.90
2023-04-25T08:11:40.003Z,99.90
2023-04-25T08:14:09.590Z,99.90
2023-04-25T08:16:38.484Z,99.90
2023-04-25T08:19:06.692Z,99.90
2023-04-25T08:21:34.469Z,99.90
2023-04-25T08:24:05.820Z,99.90
2023-04-25T08:26:38.366Z,99.90
2023-04-25T08:29:06.593Z,99.90
2023-04-25T08:31:36.290Z,99.90
2023-04-25T08:34:05.467Z,99.90
2023-04-25T08:36:44.653Z,99.90
2023-04-25T08:39:39.952Z,99.90
2023-04-25T08:42:27.812Z,99.90
2023-04-25T08:44:56.486Z,99.90
2023-04-25T08:47:31.096Z,99.90
2023-04-25T08:50:00.676Z,99.90
2023-04-25T08:52:33.485Z,99.90
2023-04-25T08:55:02.566Z,99.90
2023-04-25T08:57:31.998Z,99.90
2023-04-25T09:00:00.830Z,99.90
2023-04-25T09:02:29.027Z,99.90
2023-04-25T09:04:57.597Z,99.90
2023-04-25T09:07:27.181Z,99.90
2023-04-25T09:09:55.264Z,99.90
2023-04-25T09:12:24.044Z,99.90
2023-04-25T09:15:07.061Z,99.90
2023-04-25T09:18:04.059Z,99.90
2023-04-25T09:21:00.629Z,99.90
2023-04-25T09:23:29.474Z,99.90
2023-04-25T09:25:57.053Z,99.90
2023-04-25T09:28:28.603Z,99.90
2023-04-25T09:30:59.443Z,99.90
2023-04-25T09:33:39.421Z,99.90
2023-04-25T09:36:10.366Z,99.90
2023-04-25T09:38:57.027Z,99.90
2023-04-25T09:41:30.882Z,99.90
2023-04-25T09:44:02.496Z,99.90
2023-04-25T09:46:39.678Z,99.90
2023-04-25T09:49:16.097Z,99.90
2023-04-25T09:52:01.317Z,99.90
2023-04-25T09:54:41.172Z,99.90
2023-04-25T09:57:23.259Z,99.90
2023-04-25T09:59:53.741Z,99.90
2023-04-25T10:02:23.680Z,99.90
2023-04-25T10:04:56.213Z,99.90
2023-04-25T10:07:32.265Z,99.90
2023-04-25T10:10:05.060Z,99.90
2023-04-25T10:12:34.170Z,99.90
2023-04-25T10:15:02.813Z,99.90
2023-04-25T10:19:59.350Z,99.90
2023-04-25T10:22:39.203Z,99.90
2023-04-25T10:25:09.638Z,99.90
2023-04-25T10:27:42.021Z,99.90
2023-04-25T10:30:16.111Z,99.90
2023-04-25T10:32:44.545Z,99.90
2023-04-25T10:35:17.060Z,99.90
2023-04-25T10:38:09.880Z,99.90
2023-04-25T10:40:37.642Z,99.90
2023-04-25T10:43:35.160Z,99.90
2023-04-25T10:46:04.307Z,99.90
2023-04-25T10:48:33.088Z,99.90
2023-04-25T10:51:16.745Z,99.90
2023-04-25T10:53:48.626Z,99.90
2023-04-25T10:56:29.142Z,99.90
2023-04-25T10:59:07.182Z,99.90
2023-04-25T11:01:38.741Z,99.90
2023-04-25T11:04:07.526Z,99.90
2023-04-25T11:06:55.851Z,99.90
2023-04-25T11:09:29.080Z,99.90
2023-04-25T11:12:00.934Z,99.90
2023-04-25T11:14:28.468Z,99.90
2023-04-25T11:17:00.653Z,99.90
2023-04-25T11:19:29.359Z,99.90
2023-04-25T11:21:58.157Z,99.90
2023-04-25T11:24:32.303Z,99.90
2023-04-25T11:27:00.437Z,99.90
2023-04-25T11:29:28.404Z,99.90
2023-04-25T11:31:59.651Z,99.90
2023-04-25T11:34:31.826Z,99.90
2023-04-25T11:37:00.760Z,99.90
2023-04-25T11:39:29.012Z,99.90
2023-04-25T11:41:57.030Z,99.90
2023-04-25T11:44:24.843Z,99.90
2023-04-25T11:46:52.113Z,99.90
2023-04-25T11:49:19.721Z,99.90
2023-04-25T11:51:49.385Z,99.90
2023-04-25T11:54:17.086Z,99.90
2023-04-25T11:56:45.799Z,99.90
2023-04-25T11:59:14.023Z,99.90
2023-04-25T12:01:48.542Z,99.90
2023-04-25T12:04:24.103Z,99.90
2023-04-25T12:06:54.148Z,99.90
2023-04-25T12:09:32.858Z,99.90
2023-04-25T12:12:04.841Z,99.90
2023-04-25T12:14:35.699Z,99.90
2023-04-25T12:17:05.434Z,99.90
2023-04-25T12:19:35.798Z,99.90
2023-04-25T12:22:04.252Z,99.90
2023-04-25T12:24:37.836Z,99.90
2023-04-25T12:27:09.539Z,99.90
2023-04-25T12:29:49.455Z,99.90
2023-04-25T12:32:18.785Z,99.90
2023-04-25T12:34:46.237Z,99.90
2023-04-25T12:37:14.323Z,99.90
2023-04-25T12:39:42.230Z,99.90
2023-04-25T12:42:12.535Z,99.90
2023-04-25T12:44:40.187Z,99.90
2023-04-25T12:47:07.744Z,99.90
2023-04-25T12:49:35.945Z,99.90
2023-04-25T12:52:03.713Z,99.70
2023-04-25T12:54:32.079Z,99.90
2023-04-25T12:57:00.642Z,99.90
2023-04-25T12:59:29.333Z,99.90
2023-04-25T13:01:56.696Z,99.90
2023-04-25T13:04:24.469Z,99.90
2023-04-25T13:06:52.136Z,99.90
2023-04-25T13:09:19.449Z,99.00
2023-04-25T13:14:14.482Z,99.10
2023-04-25T13:16:42.320Z,98.70
2023-04-25T13:19:12.760Z,99.90
2023-04-25T13:21:40.288Z,99.90
2023-04-25T13:24:07.916Z,99.90
2023-04-25T13:26:35.442Z,99.90
2023-04-25T13:29:04.739Z,99.90
2023-04-25T13:31:32.724Z,99.90
2023-04-25T13:34:00.242Z,98.40
2023-04-25T13:36:29.260Z,98.30
2023-04-25T13:38:56.644Z,99.90
2023-04-25T13:41:24.285Z,98.50
2023-04-25T13:43:51.879Z,99.60
2023-04-25T13:49:12.681Z,97.10
2023-04-25T13:51:41.861Z,98.90
2023-04-25T13:54:09.241Z,97.50
2023-04-25T13:56:36.815Z,96.60
2023-04-25T13:59:04.658Z,97.40
2023-04-25T14:01:35.115Z,96.90
2023-04-25T14:04:05.044Z,97.00
2023-04-25T14:06:34.011Z,95.00
2023-04-25T14:09:05.491Z,94.00
2023-04-25T14:11:33.012Z,93.30
2023-04-25T14:14:00.444Z,99.90
2023-04-25T14:16:28.261Z,95.20
2023-04-25T14:18:56.165Z,97.40
2023-04-25T14:21:23.511Z,98.00
2023-04-25T14:23:51.393Z,97.70
2023-04-25T14:26:19.412Z,98.00
2023-04-25T14:28:46.952Z,96.80
2023-04-25T14:31:14.250Z,97.00
2023-04-25T14:33:44.228Z,96.50
2023-04-25T14:36:12.348Z,96.60
2023-04-25T14:38:40.135Z,96.90
2023-04-25T14:41:07.543Z,94.90
2023-04-25T14:43:35.480Z,96.50
2023-04-25T14:46:04.994Z,96.90
2023-04-25T14:48:32.753Z,96.80
2023-04-25T14:51:01.388Z,96.90
2023-04-25T14:53:28.995Z,96.70
2023-04-25T14:55:56.417Z,96.20
2023-04-25T14:58:23.862Z,96.30
2023-04-25T15:00:51.646Z,96.00
2023-04-25T15:03:19.749Z,96.90
2023-04-25T15:05:47.317Z,96.00
2023-04-25T15:08:14.598Z,96.00
2023-04-25T15:10:41.963Z,96.90
2023-04-25T15:13:11.435Z,96.60
2023-04-25T15:15:38.813Z,96.10
2023-04-25T15:18:06.494Z,94.90
2023-04-25T15:20:33.902Z,94.60
2023-04-25T15:23:04.459Z,93.50
2023-04-25T15:25:31.820Z,92.40
2023-04-25T15:28:00.968Z,89.80
2023-04-25T15:30:28.395Z,93.00
2023-04-25T15:32:56.313Z,90.90
2023-04-25T15:35:23.667Z,92.50
2023-04-25T15:37:51.649Z,92.50
2023-04-25T15:40:19.077Z,93.80
2023-04-25T15:42:48.366Z,93.90
2023-04-25T15:45:17.930Z,93.70
2023-04-25T15:47:45.774Z,94.50
2023-04-25T15:50:15.895Z,93.30
2023-04-25T15:52:43.722Z,93.80
2023-04-25T15:55:12.943Z,94.10
2023-04-25T15:57:42.139Z,95.20
2023-04-25T16:00:13.381Z,93.80
2023-04-25T16:02:41.525Z,93.10
2023-04-25T16:05:11.205Z,93.30
2023-04-25T16:07:40.998Z,92.90
2023-04-25T16:10:09.786Z,91.10
2023-04-25T16:12:37.676Z,92.20
2023-04-25T16:15:05.278Z,92.60
2023-04-25T16:17:33.825Z,93.10
2023-04-25T16:20:10.093Z,92.40
2023-04-25T16:22:40.183Z,93.50
2023-04-25T16:25:08.139Z,93.30
2023-04-25T16:27:37.476Z,93.30
2023-04-25T16:30:08.156Z,93.50
2023-04-25T16:32:36.449Z,93.30
2023-04-25T16:35:04.179Z,93.60
2023-04-25T16:37:31.500Z,93.30
2023-04-25T16:39:58.985Z,99.90
2023-04-25T16:42:26.374Z,93.30
2023-04-25T16:44:53.698Z,94.30
2023-04-25T16:47:21.248Z,94.00
2023-04-25T16:52:16.799Z,92.60
2023-04-25T16:54:44.269Z,93.30
2023-04-25T16:57:11.803Z,93.10
2023-04-25T16:59:39.597Z,93.30
2023-04-25T17:02:12.242Z,93.10
2023-04-25T17:07:08.792Z,93.00
2023-04-25T17:09:36.521Z,89.70
2023-04-25T17:14:33.373Z,91.20
2023-04-25T17:17:00.917Z,90.50
2023-04-25T17:19:28.785Z,90.70
2023-04-25T17:21:56.354Z,91.30
2023-04-25T17:24:23.762Z,90.80
2023-04-25T17:26:51.153Z,91.10
2023-04-25T17:29:21.674Z,92.00
2023-04-25T17:31:49.235Z,92.10
2023-04-25T17:34:18.312Z,92.00
2023-04-25T17:36:46.249Z,93.60
2023-04-25T17:39:17.786Z,93.30
2023-04-25T17:41:45.549Z,93.60
2023-04-25T17:44:14.125Z,93.90
2023-04-25T17:46:41.650Z,93.60
2023-04-25T17:49:09.040Z,94.00
2023-04-25T17:51:36.698Z,93.10
2023-04-25T17:54:04.092Z,94.50
2023-04-25T17:56:31.807Z,94.70
2023-04-25T17:58:59.342Z,95.00
2023-04-25T18:01:26.983Z,95.00
2023-04-25T18:03:54.669Z,95.80
2023-04-25T18:06:22.513Z,95.10
2023-04-25T18:08:50.111Z,94.70
2023-04-25T18:11:18.207Z,94.90
2023-04-25T18:13:45.590Z,95.10
2023-04-25T18:16:12.996Z,95.40
2023-04-25T18:18:43.168Z,95.40
2023-04-25T18:21:10.786Z,95.80
2023-04-25T18:23:38.903Z,95.50
2023-04-25T18:26:06.542Z,96.20
2023-04-25T18:28:34.487Z,96.10
2023-04-25T18:31:02.161Z,96.50
2023-04-25T18:33:29.646Z,96.60
2023-04-25T18:35:59.767Z,96.10
2023-04-25T18:41:10.768Z,96.90
2023-04-25T18:43:45.569Z,97.20
2023-04-25T18:46:13.029Z,97.90
2023-04-25T18:48:40.823Z,98.50
2023-04-25T18:56:04.883Z,99.20
2023-04-25T18:58:32.524Z,99.90
2023-04-25T19:01:00.739Z,99.90
2023-04-25T19:03:28.814Z,99.90
2023-04-25T19:05:56.484Z,99.90
2023-04-25T19:08:26.542Z,99.90
2023-04-25T19:10:54.744Z,99.90
2023-04-25T19:15:49.697Z,99.90
2023-04-25T19:18:17.577Z,99.90
2023-04-25T19:20:45.433Z,99.90
2023-04-25T19:23:13.222Z,99.90
2023-04-25T19:28:11.824Z,99.90
2023-04-25T19:30:39.626Z,99.90
2023-04-25T19:33:07.293Z,99.90
2023-04-25T19:35:34.674Z,99.90
2023-04-25T19:38:03.027Z,99.90
2023-04-25T19:40:30.414Z,99.90
2023-04-25T19:42:57.771Z,99.90
2023-04-25T19:45:25.238Z,99.90
2023-04-25T19:47:53.436Z,99.90
2023-04-25T19:50:21.729Z,99.90
2023-04-25T19:52:49.120Z,99.90
2023-04-25T19:55:16.445Z,99.90
2023-04-25T19:57:44.036Z,99.90
2023-04-25T20:00:16.649Z,99.90
2023-04-25T20:02:46.118Z,99.90
2023-04-25T20:05:15.915Z,99.90
2023-04-25T20:07:43.546Z,99.90
2023-04-25T20:10:14.160Z,99.90
2023-04-25T20:12:41.553Z,99.90
2023-04-25T20:15:11.747Z,99.90
2023-04-25T20:17:41.736Z,99.90
2023-04-25T20:20:11.344Z,99.90
2023-04-25T20:22:40.598Z,99.90
2023-04-25T20:25:09.929Z,99.90
2023-04-25T20:27:38.430Z,99.90
2023-04-25T20:30:10.600Z,99.90
2023-04-25T20:32:38.210Z,99.90
2023-04-25T20:35:08.759Z,99.90
2023-04-25T20:37:36.625Z,99.90
2023-04-25T20:40:06.531Z,99.90
2023-04-25T20:42:34.688Z,99.90
2023-04-25T20:45:07.464Z,99.90
2023-04-25T20:47:35.324Z,99.90
2023-04-25T20:50:04.175Z,99.90
2023-04-25T20:52:35.005Z,99.90
2023-04-25T20:55:02.563Z,99.90
2023-04-25T20:57:30.638Z,99.90
2023-04-25T20:59:58.073Z,99.90
2023-04-25T21:02:25.535Z,99.90
2023-04-25T21:04:53.111Z,99.90
2023-04-25T21:07:20.446Z,99.90
2023-04-25T21:09:48.179Z,99.90
2023-04-25T21:12:15.637Z,99.90
2023-04-25T21:14:43.170Z,99.90
2023-04-25T21:17:10.845Z,99.90
2023-04-25T21:19:38.616Z,99.90
2023-04-25T21:22:06.408Z,99.90
2023-04-25T21:24:33.931Z,99.90
2023-04-25T21:27:01.583Z,99.90
2023-04-25T21:29:28.881Z,99.90
2023-04-25T21:34:24.308Z,99.90
2023-04-25T21:36:51.616Z,99.90
2023-04-25T21:39:19.968Z,99.90
2023-04-25T21:41:48.326Z,99.90
2023-04-25T21:44:16.463Z,99.90
2023-04-25T21:46:44.154Z,99.90
2023-04-25T21:49:13.292Z,99.90
2023-04-25T21:51:40.839Z,99.90
2023-04-25T21:54:08.207Z,99.90
2023-04-25T21:56:35.554Z,99.90
2023-04-25T21:59:02.912Z,99.90
2023-04-25T22:01:31.865Z,99.90
2023-04-25T22:03:59.383Z,99.90
2023-04-25T22:08:55.963Z,99.90
2023-04-25T22:11:24.428Z,99.90
2023-04-25T22:13:52.093Z,99.90
2023-04-25T22:16:20.128Z,99.90
2023-04-25T22:18:48.245Z,99.90
2023-04-25T22:21:15.658Z,99.90
2023-04-25T22:23:42.914Z,99.90
2023-04-25T22:26:10.310Z,99.90
2023-04-25T22:28:37.587Z,99.90
2023-04-25T22:31:05.601Z,99.90
2023-04-25T22:33:33.530Z,99.90
2023-04-25T22:36:01.283Z,99.90
2023-04-25T22:38:28.803Z,99.90
2023-04-25T22:40:56.323Z,99.90
2023-04-25T22:43:24.033Z,99.90
2023-04-25T22:48:19.663Z,99.90
2023-04-25T22:53:14.687Z,99.90
2023-04-25T22:55:42.115Z,99.90
2023-04-25T22:58:10.000Z,99.90
2023-04-25T23:00:37.554Z,99.90
2023-04-25T23:03:05.995Z,99.90
2023-04-25T23:05:36.618Z,99.90
2023-04-25T23:08:04.409Z,99.90
2023-04-25T23:10:31.810Z,99.90
2023-04-25T23:13:00.894Z,99.90
2023-04-25T23:15:30.934Z,99.90
2023-04-25T23:17:59.076Z,99.90
2023-04-25T23:20:26.816Z,99.90
2023-04-25T23:25:22.902Z,99.90
2023-04-25T23:27:50.326Z,99.90
2023-04-25T23:30:18.077Z,99.90
2023-04-25T23:35:13.344Z,99.90
2023-04-25T23:37:40.991Z,99.90
2023-04-25T23:40:15.325Z,99.90
2023-04-25T23:42:42.722Z,99.90
2023-04-25T23:45:10.373Z,99.90
2023-04-25T23:47:38.149Z,99.90
2023-04-25T23:50:06.176Z,99.90
2023-04-25T23:52:33.662Z,99.90
2023-04-25T23:55:01.138Z,99.90
2023-04-25T23:57:28.767Z,99.90
2023-04-25T23:59:57.007Z,99.90
